createdAt,value
2018-09-15T00:00:02.986Z,5.33
2018-09-15T00:02:31.806Z,5.13
2018-09-15T00:05:00.670Z,4.73
2018-09-15T00:07:29.539Z,5.20
2018-09-15T00:09:58.362Z,4.90
2018-09-15T00:12:27.221Z,5.03
2018-09-15T00:14:56.121Z,4.87
2018-09-15T00:17:25.014Z,4.17
2018-09-15T00:19:55.028Z,4.70
2018-09-15T00:22:23.867Z,4.67
2018-09-15T00:24:52.668Z,4.60
2018-09-15T00:27:21.567Z,5.47
2018-09-15T00:29:50.423Z,4.57
2018-09-15T00:32:19.330Z,5.37
2018-09-15T00:34:48.223Z,5.03
2018-09-15T00:37:17.120Z,4.73
2018-09-15T00:39:46.052Z,5.33
2018-09-15T00:42:14.912Z,5.33
2018-09-15T00:44:43.779Z,6.50
2018-09-15T00:47:12.584Z,5.20
2018-09-15T00:49:41.457Z,5.33
2018-09-15T00:52:10.289Z,5.77
2018-09-15T00:54:39.187Z,5.77
2018-09-15T00:57:07.998Z,5.10
2018-09-15T00:59:36.841Z,5.67
2018-09-15T01:02:05.735Z,6.03
2018-09-15T01:04:34.602Z,5.83
2018-09-15T01:07:03.499Z,6.20
2018-09-15T01:09:32.370Z,6.00
2018-09-15T01:12:01.188Z,5.47
2018-09-15T01:14:30.090Z,6.00
2018-09-15T01:16:58.949Z,5.47
2018-09-15T01:19:27.848Z,6.77
2018-09-15T01:21:56.724Z,5.97
2018-09-15T01:24:25.593Z,6.50
2018-09-15T01:26:54.479Z,5.40
2018-09-15T01:29:23.798Z,6.67
2018-09-15T01:31:52.623Z,6.63
2018-09-15T01:34:21.535Z,6.10
2018-09-15T01:36:50.682Z,7.23
2018-09-15T01:39:19.497Z,6.73
2018-09-15T01:41:48.394Z,5.50
2018-09-15T01:44:17.275Z,6.40
2018-09-15T01:46:46.116Z,5.93
2018-09-15T01:49:14.927Z,6.33
2018-09-15T01:51:43.776Z,6.30
2018-09-15T01:54:12.618Z,6.80
2018-09-15T01:56:41.478Z,5.93
2018-09-15T01:59:10.310Z,6.63
2018-09-15T02:01:39.231Z,5.97
2018-09-15T02:04:08.629Z,5.33
2018-09-15T02:06:37.585Z,6.17
2018-09-15T02:09:12.039Z,6.93
2018-09-15T02:11:41.010Z,5.93
2018-09-15T02:14:09.823Z,6.07
2018-09-15T02:16:38.630Z,7.00
2018-09-15T02:19:07.527Z,6.07
2018-09-15T02:21:36.381Z,5.97
2018-09-15T02:24:05.293Z,5.90
2018-09-15T02:26:34.171Z,6.50
2018-09-15T02:29:03.064Z,6.87
2018-09-15T02:31:31.888Z,6.67
2018-09-15T02:34:00.751Z,6.67
2018-09-15T02:36:29.685Z,6.50
2018-09-15T02:38:58.518Z,6.50
2018-09-15T02:41:27.417Z,6.47
2018-09-15T02:43:56.224Z,6.33
2018-09-15T02:46:25.106Z,5.87
2018-09-15T02:48:53.950Z,6.60
2018-09-15T02:51:22.810Z,6.33
2018-09-15T02:53:51.620Z,6.30
2018-09-15T02:56:20.553Z,5.93
2018-09-15T02:58:49.385Z,6.57
2018-09-15T03:01:18.309Z,6.07
2018-09-15T03:03:47.141Z,7.40
2018-09-15T03:06:15.995Z,7.17
2018-09-15T03:08:44.788Z,7.00
2018-09-15T03:11:13.673Z,6.73
2018-09-15T03:13:42.664Z,7.23
2018-09-15T03:16:11.496Z,6.20
2018-09-15T03:18:40.389Z,7.67
2018-09-15T03:21:09.232Z,6.23
2018-09-15T03:23:38.108Z,6.40
2018-09-15T03:26:07.060Z,6.53
2018-09-15T03:28:35.866Z,6.60
2018-09-15T03:31:04.758Z,6.97
2018-09-15T03:33:33.573Z,6.60
2018-09-15T03:36:02.511Z,6.97
2018-09-15T03:38:31.369Z,7.40
2018-09-15T03:41:00.211Z,7.07
2018-09-15T03:43:29.085Z,6.40
2018-09-15T03:45:57.921Z,8.33
2018-09-15T03:48:26.799Z,7.33
2018-09-15T03:50:55.621Z,7.63
2018-09-15T03:53:24.455Z,11.13
2018-09-15T03:55:53.266Z,12.03
2018-09-15T03:58:22.142Z,12.07
2018-09-15T04:00:52.871Z,13.30
2018-09-15T04:03:22.482Z,13.87
2018-09-15T04:05:51.318Z,13.00
2018-09-15T04:08:20.772Z,12.23
2018-09-15T04:10:49.612Z,11.10
2018-09-15T04:13:18.476Z,10.90
2018-09-15T04:15:47.336Z,10.53
2018-09-15T04:18:17.105Z,12.30
2018-09-15T04:20:47.908Z,13.30
2018-09-15T04:23:17.480Z,11.87
2018-09-15T04:25:46.618Z,12.23
2018-09-15T04:28:15.577Z,11.17
2018-09-15T04:30:44.414Z,13.53
2018-09-15T04:33:13.297Z,14.53
2018-09-15T04:35:42.199Z,13.73
2018-09-15T04:38:11.076Z,14.80
2018-09-15T04:40:39.945Z,13.83
2018-09-15T04:43:08.805Z,14.57
2018-09-15T04:45:37.693Z,15.70
2018-09-15T04:48:06.526Z,16.17
2018-09-15T04:50:35.364Z,15.37
2018-09-15T04:53:04.175Z,16.13
2018-09-15T04:55:33.029Z,15.47
2018-09-15T04:58:01.866Z,15.23
2018-09-15T05:00:30.749Z,15.47
2018-09-15T05:02:59.542Z,14.23
2018-09-15T05:05:28.385Z,15.53
2018-09-15T05:07:57.194Z,15.97
2018-09-15T05:10:26.081Z,15.20
2018-09-15T05:12:55.023Z,15.07
2018-09-15T05:15:23.887Z,14.30
2018-09-15T05:17:52.939Z,15.17
2018-09-15T05:20:21.764Z,15.80
2018-09-15T05:22:50.628Z,15.70
2018-09-15T05:25:19.444Z,16.07
2018-09-15T05:27:48.318Z,16.30
2018-09-15T05:30:17.219Z,13.03
2018-09-15T05:32:46.122Z,16.10
2018-09-15T05:35:14.968Z,18.47
2018-09-15T05:37:43.871Z,15.00
2018-09-15T05:40:12.716Z,14.97
2018-09-15T05:42:41.570Z,14.47
2018-09-15T05:45:10.448Z,15.53
2018-09-15T05:47:39.288Z,15.20
2018-09-15T05:50:08.142Z,14.17
2018-09-15T05:52:36.995Z,14.80
2018-09-15T05:55:06.315Z,14.93
2018-09-15T05:57:35.200Z,15.37
2018-09-15T06:00:04.197Z,14.73
2018-09-15T06:02:33.040Z,15.47
2018-09-15T06:05:01.916Z,15.80
2018-09-15T06:07:30.854Z,14.20
2018-09-15T06:09:59.726Z,14.17
2018-09-15T06:12:28.599Z,14.03
2018-09-15T06:15:01.098Z,13.33
2018-09-15T06:17:30.322Z,12.80
2018-09-15T06:19:59.231Z,12.43
2018-09-15T06:22:28.069Z,12.90
2018-09-15T06:24:56.965Z,11.70
2018-09-15T06:27:25.818Z,14.00
2018-09-15T06:29:54.799Z,11.17
2018-09-15T06:32:23.740Z,11.13
2018-09-15T06:35:08.304Z,10.83
2018-09-15T06:37:37.291Z,12.60
2018-09-15T06:40:06.245Z,11.23
2018-09-15T06:42:35.131Z,10.53
2018-09-15T06:45:04.090Z,11.33
2018-09-15T06:47:33.009Z,9.73
2018-09-15T06:50:01.956Z,8.27
2018-09-15T06:52:30.953Z,9.17
2018-09-15T06:54:59.746Z,8.20
2018-09-15T06:57:28.648Z,7.83
2018-09-15T06:59:57.455Z,7.87
2018-09-15T07:02:26.378Z,7.70
2018-09-15T07:04:55.207Z,8.97
2018-09-15T07:07:24.355Z,7.97
2018-09-15T07:09:53.220Z,7.87
2018-09-15T07:12:22.022Z,7.20
2018-09-15T07:14:50.979Z,8.10
2018-09-15T07:17:19.867Z,6.40
2018-09-15T07:19:48.728Z,8.00
2018-09-15T07:22:17.676Z,8.40
2018-09-15T07:24:46.508Z,7.37
2018-09-15T07:27:15.451Z,7.20
2018-09-15T07:29:44.359Z,7.87
2018-09-15T07:32:13.235Z,7.27
2018-09-15T07:34:42.106Z,7.23
2018-09-15T07:37:11.063Z,7.20
2018-09-15T07:39:40.735Z,7.33
2018-09-15T07:42:09.674Z,7.17
2018-09-15T07:44:38.517Z,6.50
2018-09-15T07:47:07.500Z,6.87
2018-09-15T07:49:36.465Z,6.83
2018-09-15T07:52:05.358Z,5.97
2018-09-15T07:54:34.247Z,5.30
2018-09-15T07:57:03.070Z,5.50
2018-09-15T07:59:31.964Z,4.40
2018-09-15T08:02:00.872Z,3.80
2018-09-15T08:04:29.737Z,3.80
2018-09-15T08:06:58.591Z,3.60
2018-09-15T08:09:27.425Z,3.87
2018-09-15T08:11:56.309Z,4.37
2018-09-15T08:14:25.140Z,4.60
2018-09-15T08:16:54.024Z,4.20
2018-09-15T08:19:23.004Z,3.73
2018-09-15T08:21:52.727Z,3.17
2018-09-15T08:24:21.652Z,3.40
2018-09-15T08:26:50.352Z,3.27
2018-09-15T08:29:19.010Z,4.40
2018-09-15T08:31:47.848Z,3.80
2018-09-15T08:34:16.722Z,3.40
2018-09-15T08:36:45.660Z,3.80
2018-09-15T08:39:14.573Z,3.80
2018-09-15T08:41:44.370Z,3.57
2018-09-15T08:44:13.272Z,3.30
2018-09-15T08:46:42.322Z,3.00
2018-09-15T08:49:11.792Z,3.13
2018-09-15T08:51:41.108Z,3.20
2018-09-15T08:54:10.070Z,2.53
2018-09-15T08:56:39.397Z,2.40
2018-09-15T08:59:08.343Z,2.50
2018-09-15T09:01:37.817Z,2.60
2018-09-15T09:04:06.704Z,2.40
2018-09-15T09:06:35.681Z,2.17
2018-09-15T09:09:06.766Z,2.60
2018-09-15T09:11:36.269Z,3.00
2018-09-15T09:14:06.078Z,2.20
2018-09-15T09:16:38.487Z,2.87
2018-09-15T09:19:09.877Z,2.40
2018-09-15T09:21:39.070Z,2.20
2018-09-15T09:24:08.119Z,2.77
2018-09-15T09:26:37.350Z,2.70
2018-09-15T09:29:06.457Z,2.70
2018-09-15T09:31:36.324Z,2.40
2018-09-15T09:34:05.824Z,2.50
2018-09-15T09:36:37.291Z,2.63
2018-09-15T09:39:09.302Z,1.97
2018-09-15T09:41:38.434Z,2.53
2018-09-15T09:44:08.147Z,1.80
2018-09-15T09:46:37.433Z,2.40
2018-09-15T09:49:06.627Z,2.20
2018-09-15T09:51:35.512Z,1.80
2018-09-15T09:54:04.502Z,2.00
2018-09-15T09:56:33.428Z,2.00
2018-09-15T09:59:02.549Z,1.40
2018-09-15T10:01:36.691Z,1.40
2018-09-15T10:04:07.774Z,1.70
2018-09-15T10:06:36.876Z,2.93
2018-09-15T10:09:08.609Z,1.40
2018-09-15T10:11:38.107Z,1.70
2018-09-15T10:14:07.209Z,1.40
2018-09-15T10:16:36.145Z,1.17
2018-09-15T10:19:05.145Z,1.33
2018-09-15T10:21:34.096Z,1.50
2018-09-15T10:24:03.382Z,1.70
2018-09-15T10:26:33.921Z,1.30
2018-09-15T10:29:04.757Z,2.03
2018-09-15T10:31:34.019Z,1.50
2018-09-15T10:34:03.581Z,1.20
2018-09-15T10:36:33.131Z,1.30
2018-09-15T10:39:04.515Z,1.93
2018-09-15T10:41:34.649Z,1.10
2018-09-15T10:44:05.359Z,1.40
2018-09-15T10:46:37.260Z,1.00
2018-09-15T10:49:06.305Z,1.20
2018-09-15T10:51:35.094Z,1.00
2018-09-15T10:54:04.102Z,1.30
2018-09-15T10:56:33.224Z,1.67
2018-09-15T10:59:02.349Z,1.10
2018-09-15T11:01:31.456Z,1.37
2018-09-15T11:04:00.889Z,1.20
2018-09-15T11:06:30.603Z,1.50
2018-09-15T11:09:00.550Z,1.40
2018-09-15T11:11:29.538Z,1.10
2018-09-15T11:13:58.458Z,0.97
2018-09-15T11:16:30.204Z,1.10
2018-09-15T11:19:04.065Z,1.17
2018-09-15T11:21:32.940Z,1.20
2018-09-15T11:24:01.969Z,1.40
2018-09-15T11:26:30.994Z,1.27
2018-09-15T11:29:00.126Z,1.50
2018-09-15T11:31:29.173Z,1.30
2018-09-15T11:33:58.332Z,1.07
2018-09-15T11:36:29.843Z,1.03
2018-09-15T11:39:04.867Z,0.93
2018-09-15T11:41:34.011Z,1.13
2018-09-15T11:44:03.827Z,0.90
2018-09-15T11:46:34.197Z,1.33
2018-09-15T11:49:07.586Z,1.17
2018-09-15T11:51:36.926Z,1.00
2018-09-15T11:54:07.178Z,0.70
2018-09-15T11:56:37.925Z,1.10
2018-09-15T11:59:09.097Z,0.87
2018-09-15T12:01:41.692Z,0.97
2018-09-15T12:04:11.463Z,0.87
2018-09-15T12:07:00.731Z,1.00
2018-09-15T12:09:31.390Z,0.80
2018-09-15T12:12:01.054Z,1.10
2018-09-15T12:14:30.078Z,0.80
2018-09-15T12:17:01.274Z,0.80
2018-09-15T12:19:33.464Z,0.80
2018-09-15T12:22:03.224Z,0.60
2018-09-15T12:24:34.909Z,0.70
2018-09-15T12:27:06.428Z,0.70
2018-09-15T12:29:38.869Z,0.70
2018-09-15T12:32:13.559Z,0.93
2018-09-15T12:34:47.049Z,0.77
2018-09-15T12:37:18.363Z,0.90
2018-09-15T12:39:50.338Z,0.60
2018-09-15T12:42:22.536Z,1.00
2018-09-15T12:44:51.700Z,0.87
2018-09-15T12:47:20.877Z,1.17
2018-09-15T12:49:49.859Z,0.90
2018-09-15T12:52:18.868Z,0.63
2018-09-15T12:54:49.500Z,0.80
2018-09-15T12:57:18.884Z,0.70
2018-09-15T12:59:47.902Z,1.07
2018-09-15T13:02:16.884Z,0.93
2018-09-15T13:04:49.012Z,0.70
2018-09-15T13:07:18.038Z,0.80
2018-09-15T13:09:46.878Z,0.70
2018-09-15T13:12:15.894Z,0.90
2018-09-15T13:14:44.724Z,0.80
2018-09-15T13:17:13.917Z,1.00
2018-09-15T13:19:42.709Z,0.80
2018-09-15T13:22:11.630Z,1.00
2018-09-15T13:24:40.580Z,0.80
2018-09-15T13:27:09.527Z,0.93
2018-09-15T13:29:38.608Z,0.73
2018-09-15T13:32:11.792Z,0.87
2018-09-15T13:34:42.210Z,0.67
2018-09-15T13:37:16.273Z,0.70
2018-09-15T13:39:46.682Z,0.87
2018-09-15T13:42:16.449Z,1.00
2018-09-15T13:44:45.469Z,0.80
2018-09-15T13:47:15.142Z,0.90
2018-09-15T13:49:44.594Z,1.00
2018-09-15T13:52:13.753Z,1.63
2018-09-15T13:54:46.395Z,0.93
2018-09-15T13:57:15.426Z,1.27
2018-09-15T13:59:44.297Z,0.90
2018-09-15T14:02:13.140Z,0.87
2018-09-15T14:04:41.984Z,1.10
2018-09-15T14:07:10.918Z,1.03
2018-09-15T14:09:43.477Z,0.80
2018-09-15T14:12:08.661Z,0.90
2018-09-15T14:14:37.520Z,1.00
2018-09-15T14:17:06.353Z,0.80
2018-09-15T14:19:35.270Z,0.80
2018-09-15T14:22:04.181Z,0.70
2018-09-15T14:24:33.030Z,0.70
2018-09-15T14:27:02.041Z,1.30
2018-09-15T14:29:31.054Z,0.90
2018-09-15T14:32:00.063Z,0.80
2018-09-15T14:34:28.944Z,0.93
2018-09-15T14:36:57.845Z,0.90
2018-09-15T14:39:26.884Z,0.70
2018-09-15T14:42:06.258Z,1.53
2018-09-15T14:44:50.968Z,0.80
2018-09-15T14:47:50.509Z,1.17
2018-09-15T14:50:21.222Z,1.10
2018-09-15T14:53:03.016Z,0.80
2018-09-15T14:55:37.292Z,1.23
2018-09-15T14:58:06.559Z,1.00
2018-09-15T15:00:47.873Z,1.20
2018-09-15T15:03:22.624Z,0.90
2018-09-15T15:05:54.099Z,1.20
2018-09-15T15:08:23.239Z,1.07
2018-09-15T15:10:53.845Z,1.37
2018-09-15T15:13:33.449Z,1.30
2018-09-15T15:16:18.245Z,1.10
2018-09-15T15:18:56.340Z,1.50
2018-09-15T15:21:33.846Z,1.30
2018-09-15T15:24:03.399Z,1.10
2018-09-15T15:26:32.354Z,1.07
2018-09-15T15:29:04.144Z,1.03
2018-09-15T15:31:35.575Z,1.20
2018-09-15T15:34:05.358Z,1.37
2018-09-15T15:36:38.147Z,1.40
2018-09-15T15:39:10.623Z,1.20
2018-09-15T15:41:49.274Z,0.90
2018-09-15T15:44:20.542Z,1.40
2018-09-15T15:46:51.113Z,1.00
2018-09-15T15:49:21.861Z,1.10
2018-09-15T15:51:53.893Z,1.20
2018-09-15T15:54:23.217Z,1.07
2018-09-15T15:56:58.855Z,1.50
2018-09-15T15:59:28.013Z,1.07
2018-09-15T16:01:57.233Z,1.67
2018-09-15T16:04:27.251Z,1.00
2018-09-15T16:06:58.063Z,1.30
2018-09-15T16:09:27.609Z,1.77
2018-09-15T16:11:56.692Z,1.60
2018-09-15T16:14:25.543Z,2.27
2018-09-15T16:16:54.797Z,2.07
2018-09-15T16:19:23.631Z,1.50
2018-09-15T16:21:53.202Z,1.37
2018-09-15T16:24:22.079Z,1.13
2018-09-15T16:26:50.969Z,1.13
2018-09-15T16:29:20.094Z,1.37
2018-09-15T16:31:48.933Z,1.40
2018-09-15T16:34:18.166Z,1.10
2018-09-15T16:36:47.499Z,1.30
2018-09-15T16:39:16.357Z,1.20
2018-09-15T16:41:45.238Z,1.57
2018-09-15T16:44:14.130Z,1.30
2018-09-15T16:46:42.933Z,1.23
2018-09-15T16:49:11.881Z,0.97
2018-09-15T16:51:40.749Z,1.10
2018-09-15T16:54:09.661Z,1.00
2018-09-15T16:56:38.640Z,1.10
2018-09-15T16:59:07.808Z,2.50
2018-09-15T17:01:36.654Z,1.97
2018-09-15T17:04:05.584Z,2.90
2018-09-15T17:06:35.274Z,4.17
2018-09-15T17:09:05.899Z,3.43
2018-09-15T17:11:36.976Z,3.20
2018-09-15T17:14:06.719Z,4.20
2018-09-15T17:16:35.897Z,3.20
2018-09-15T17:19:05.205Z,4.07
2018-09-15T17:21:34.498Z,2.60
2018-09-15T17:24:03.318Z,2.10
2018-09-15T17:26:32.225Z,2.17
2018-09-15T17:29:01.152Z,2.13
2018-09-15T17:31:30.144Z,2.20
2018-09-15T17:33:59.024Z,2.40
2018-09-15T17:36:28.158Z,2.53
2018-09-15T17:38:57.659Z,2.43
2018-09-15T17:41:26.702Z,2.10
2018-09-15T17:43:55.669Z,2.00
2018-09-15T17:46:24.708Z,2.30
2018-09-15T17:48:54.179Z,2.40
2018-09-15T17:51:24.364Z,1.97
2018-09-15T17:53:53.377Z,2.13
2018-09-15T17:56:23.514Z,2.20
2018-09-15T17:58:53.767Z,2.33
2018-09-15T18:01:23.480Z,2.30
2018-09-15T18:03:52.396Z,2.37
2018-09-15T18:06:21.443Z,1.90
2018-09-15T18:08:50.519Z,1.83
2018-09-15T18:11:23.793Z,2.27
2018-09-15T18:13:52.980Z,2.03
2018-09-15T18:16:21.968Z,2.30
2018-09-15T18:18:50.902Z,2.17
2018-09-15T18:21:19.866Z,1.90
2018-09-15T18:23:51.995Z,2.03
2018-09-15T18:26:25.689Z,2.47
2018-09-15T18:29:00.686Z,2.10
2018-09-15T18:31:32.820Z,1.97
2018-09-15T18:34:03.524Z,2.23
2018-09-15T18:36:32.647Z,2.57
2018-09-15T18:39:01.566Z,2.33
2018-09-15T18:41:30.526Z,2.80
2018-09-15T18:43:59.496Z,2.87
2018-09-15T18:46:28.487Z,2.73
2018-09-15T18:48:57.543Z,2.90
2018-09-15T18:51:26.729Z,2.60
2018-09-15T18:53:55.783Z,3.50
2018-09-15T18:56:24.860Z,2.37
2018-09-15T18:58:53.779Z,2.00
2018-09-15T19:01:22.648Z,1.90
2018-09-15T19:03:51.507Z,1.47
2018-09-15T19:06:20.404Z,1.40
2018-09-15T19:08:49.292Z,1.50
2018-09-15T19:11:18.121Z,2.20
2018-09-15T19:13:47.024Z,1.67
2018-09-15T19:16:15.831Z,1.47
2018-09-15T19:18:58.300Z,1.20
2018-09-15T19:21:27.217Z,1.37
2018-09-15T19:23:56.075Z,1.60
2018-09-15T19:26:24.984Z,1.30
2018-09-15T19:28:53.932Z,1.00
2018-09-15T19:31:22.777Z,1.13
2018-09-15T19:33:53.871Z,1.10
2018-09-15T19:36:23.033Z,1.20
2018-09-15T19:38:51.901Z,2.10
2018-09-15T19:41:20.799Z,1.47
2018-09-15T19:43:49.651Z,1.10
2018-09-15T19:46:19.312Z,1.30
2018-09-15T19:48:48.186Z,1.03
2018-09-15T19:51:17.327Z,1.53
2018-09-15T19:53:46.295Z,1.20
2018-09-15T19:56:15.136Z,1.30
2018-09-15T19:58:44.033Z,1.60
2018-09-15T20:01:12.944Z,1.33
2018-09-15T20:03:42.251Z,1.17
2018-09-15T20:06:11.200Z,1.33
2018-09-15T20:08:40.100Z,1.50
2018-09-15T20:11:09.228Z,1.30
2018-09-15T20:13:38.795Z,1.20
2018-09-15T20:16:07.049Z,1.27
2018-09-15T20:18:35.703Z,1.30
2018-09-15T20:21:03.359Z,1.00
2018-09-15T20:23:32.231Z,1.13
2018-09-15T20:26:01.155Z,1.00
2018-09-15T20:28:30.039Z,1.40
2018-09-15T20:30:58.940Z,1.37
2018-09-15T20:33:27.749Z,1.07
2018-09-15T20:35:56.604Z,1.37
2018-09-15T20:38:25.533Z,1.13
2018-09-15T20:40:54.417Z,1.40
2018-09-15T20:43:23.235Z,1.47
2018-09-15T20:45:52.168Z,1.30
2018-09-15T20:48:21.009Z,1.63
2018-09-15T20:50:49.877Z,1.30
2018-09-15T20:53:18.754Z,1.40
2018-09-15T20:55:52.719Z,1.30
2018-09-15T20:58:31.800Z,1.30
2018-09-15T21:01:17.178Z,1.27
2018-09-15T21:03:46.477Z,1.50
2018-09-15T21:06:15.561Z,1.63
2018-09-15T21:08:44.540Z,1.23
2018-09-15T21:11:14.395Z,1.40
2018-09-15T21:13:43.975Z,1.20
2018-09-15T21:16:14.005Z,1.70
2018-09-15T21:18:43.701Z,1.90
2018-09-15T21:21:13.466Z,1.53
2018-09-15T21:23:43.369Z,2.03
2018-09-15T21:26:12.380Z,1.57
2018-09-15T21:28:43.392Z,1.47
2018-09-15T21:31:12.291Z,1.60
2018-09-15T21:33:41.131Z,1.43
2018-09-15T21:36:10.063Z,1.57
2018-09-15T21:38:39.230Z,1.60
2018-09-15T21:41:08.315Z,1.30
2018-09-15T21:43:37.415Z,1.63
2018-09-15T21:46:06.704Z,1.53
2018-09-15T21:48:35.901Z,1.40
2018-09-15T21:51:06.238Z,1.47
2018-09-15T21:53:35.372Z,1.50
2018-09-15T21:56:04.293Z,2.10
2018-09-15T21:58:33.207Z,1.73
2018-09-15T22:01:03.652Z,1.70
2018-09-15T22:03:36.799Z,1.90
2018-09-15T22:06:05.831Z,1.83
2018-09-15T22:08:34.763Z,2.50
2018-09-15T22:11:03.659Z,2.60
2018-09-15T22:13:32.513Z,3.00
2018-09-15T22:16:01.386Z,3.40
2018-09-15T22:18:30.292Z,3.73
2018-09-15T22:20:59.215Z,4.17
2018-09-15T22:23:28.051Z,5.00
2018-09-15T22:25:56.899Z,4.80
2018-09-15T22:28:25.727Z,4.90
2018-09-15T22:30:54.630Z,5.10
2018-09-15T22:33:23.543Z,5.37
2018-09-15T22:35:52.452Z,5.47
2018-09-15T22:38:21.450Z,5.67
2018-09-15T22:40:50.307Z,6.60
2018-09-15T22:43:19.264Z,5.80
2018-09-15T22:45:48.108Z,6.27
2018-09-15T22:48:16.970Z,6.03
2018-09-15T22:50:45.994Z,6.43
2018-09-15T22:53:14.838Z,5.93
2018-09-15T22:55:43.750Z,5.83
2018-09-15T22:58:12.590Z,6.40
2018-09-15T23:00:41.466Z,6.47
2018-09-15T23:03:10.315Z,6.00
2018-09-15T23:05:39.220Z,7.03
2018-09-15T23:08:08.091Z,6.43
2018-09-15T23:10:37.007Z,5.13
2018-09-15T23:13:05.902Z,5.20
2018-09-15T23:15:34.804Z,4.93
2018-09-15T23:18:03.674Z,5.23
2018-09-15T23:20:32.640Z,5.20
2018-09-15T23:23:01.515Z,5.43
2018-09-15T23:25:30.872Z,5.20
2018-09-15T23:27:59.813Z,5.53
2018-09-15T23:30:28.646Z,4.77
2018-09-15T23:32:57.502Z,5.33
2018-09-15T23:35:26.304Z,4.87
2018-09-15T23:37:55.153Z,5.87
2018-09-15T23:40:23.984Z,5.43
2018-09-15T23:42:52.821Z,4.63
2018-09-15T23:45:21.711Z,5.30
2018-09-15T23:47:50.582Z,5.23
2018-09-15T23:50:19.563Z,4.87
2018-09-15T23:52:48.432Z,5.53
2018-09-15T23:55:17.319Z,5.47
2018-09-15T23:57:46.125Z,5.50
